Time;durP1;ratioP1;P1;durP2;ratioP2;P2;SDS_P1;SDS_P2;PMS_P1;PMS_P2;Temp;Humidity;BMP_temperature;BMP_pressure;BME280_temperature;BME280_humidity;BME280_pressure;Samples;Min_cycle;Max_cycle;Signal;HPM_P1;HPM_P2
2023/09/29 00:00:46;;;;;;;22.08;5.72;;;16.30;99.90;;;;;;5060397;28;20047;-76
2023/09/29 00:03:12;;;;;;;16.58;5.75;;;16.30;99.90;;;;;;5067437;28;20508;-77
2023/09/29 00:05:38;;;;;;;18.08;5.95;;;16.30;99.90;;;;;;5060012;28;20060;-77
2023/09/29 00:08:06;;;;;;;17.20;5.35;;;16.30;99.90;;;;;;5059303;28;20033;-77
2023/09/29 00:10:32;;;;;;;21.45;5.07;;;16.30;99.90;;;;;;5073435;28;20050;-77
2023/09/29 00:12:58;;;;;;;20.02;5.40;;;16.40;99.90;;;;;;5061728;28;20465;-77
2023/09/29 00:15:24;;;;;;;17.63;5.13;;;16.40;99.90;;;;;;5069648;28;20048;-77
2023/09/29 00:17:49;;;;;;;17.95;6.00;;;16.40;99.90;;;;;;5066285;28;20047;-77
2023/09/29 00:20:24;;;;;;;16.65;5.60;;;16.40;99.90;;;;;;5063654;28;20111;-77
2023/09/29 00:22:54;;;;;;;20.70;5.90;;;16.40;99.90;;;;;;5066381;28;20033;-77
2023/09/29 00:25:20;;;;;;;12.73;5.07;;;16.40;99.90;;;;;;5063268;28;20028;-77
2023/09/29 00:27:46;;;;;;;19.63;5.75;;;16.40;99.90;;;;;;5056939;28;20044;-78
2023/09/29 00:30:12;;;;;;;22.35;5.50;;;16.40;99.90;;;;;;5063445;28;20115;-78
2023/09/29 00:32:45;;;;;;;18.20;5.45;;;16.40;99.90;;;;;;5064785;28;20128;-76
2023/09/29 00:35:11;;;;;;;21.23;5.80;;;16.40;99.90;;;;;;5069771;28;20046;-77
2023/09/29 00:37:37;;;;;;;12.52;5.20;;;16.40;99.90;;;;;;5068183;28;20094;-77
2023/09/29 00:40:11;;;;;;;22.00;6.18;;;16.40;99.90;;;;;;5061495;28;20391;-78
2023/09/29 00:42:37;;;;;;;19.80;5.68;;;16.50;99.90;;;;;;5053110;28;20557;-77
2023/09/29 00:45:06;;;;;;;16.15;5.35;;;16.50;99.90;;;;;;5064748;28;20040;-77
2023/09/29 00:47:32;;;;;;;17.02;5.72;;;16.50;99.90;;;;;;5066181;28;20442;-77
2023/09/29 00:49:58;;;;;;;17.08;5.45;;;16.50;99.90;;;;;;5062972;28;20029;-77
2023/09/29 00:52:27;;;;;;;16.35;5.72;;;16.40;99.90;;;;;;5060210;28;20111;-77
2023/09/29 00:54:53;;;;;;;17.85;5.47;;;16.40;99.90;;;;;;5064498;28;20033;-77
2023/09/29 00:57:20;;;;;;;15.02;5.45;;;16.40;99.90;;;;;;5057879;28;20041;-77
2023/09/29 00:59:46;;;;;;;17.05;5.72;;;16.40;99.90;;;;;;5056496;28;20499;-77
2023/09/29 01:02:14;;;;;;;19.60;6.25;;;16.40;99.90;;;;;;5058806;28;20491;-77
2023/09/29 01:04:40;;;;;;;19.33;5.40;;;16.40;99.90;;;;;;5065421;28;20033;-77
2023/09/29 01:07:07;;;;;;;20.63;5.32;;;16.40;99.90;;;;;;5073228;28;20037;-77
2023/09/29 01:09:33;;;;;;;17.48;5.45;;;16.50;99.90;;;;;;5061144;28;20062;-77
2023/09/29 01:12:04;;;;;;;13.27;4.95;;;16.40;99.90;;;;;;5065652;28;20048;-77
2023/09/29 01:14:30;;;;;;;12.48;4.80;;;16.40;99.90;;;;;;5073511;28;20043;-77
2023/09/29 01:16:56;;;;;;;17.95;5.18;;;16.40;99.90;;;;;;5064999;28;20166;-77
2023/09/29 01:19:21;;;;;;;20.58;6.30;;;16.40;99.90;;;;;;5072551;28;20119;-77
2023/09/29 01:21:47;;;;;;;16.83;5.45;;;16.40;99.90;;;;;;5066190;28;20033;-77
2023/09/29 01:24:13;;;;;;;16.35;5.65;;;16.40;99.90;;;;;;5072443;28;20487;-77
2023/09/29 01:26:42;;;;;;;18.67;5.43;;;16.40;99.90;;;;;;5066420;28;20028;-77
2023/09/29 01:29:07;;;;;;;19.52;5.78;;;16.40;99.90;;;;;;5065820;28;20037;-77
2023/09/29 01:31:34;;;;;;;16.55;5.53;;;16.50;99.90;;;;;;5062097;28;20098;-77
2023/09/29 01:34:02;;;;;;;15.68;5.93;;;16.40;99.90;;;;;;5065714;28;20050;-77
2023/09/29 01:36:27;;;;;;;15.95;5.38;;;16.40;99.90;;;;;;5061205;28;20040;-78
2023/09/29 01:38:53;;;;;;;16.15;6.50;;;16.50;99.90;;;;;;5062508;28;20043;-77
2023/09/29 01:41:19;;;;;;;20.73;5.90;;;16.40;99.90;;;;;;5070681;28;20091;-77
2023/09/29 01:43:45;;;;;;;17.75;5.68;;;16.50;99.90;;;;;;5064013;28;20040;-78
2023/09/29 01:46:11;;;;;;;18.48;6.22;;;16.40;99.90;;;;;;5072309;28;20093;-77
2023/09/29 01:48:36;;;;;;;16.20;5.57;;;16.40;99.90;;;;;;5060934;28;20393;-77
2023/09/29 01:51:02;;;;;;;16.45;5.75;;;16.50;99.90;;;;;;5062254;28;20032;-77
2023/09/29 01:53:30;;;;;;;19.30;5.72;;;16.50;99.90;;;;;;5060785;28;20120;-77
2023/09/29 01:55:56;;;;;;;13.80;5.38;;;16.40;99.90;;;;;;5060891;28;20036;-77
2023/09/29 01:58:22;;;;;;;19.83;6.25;;;16.50;99.90;;;;;;5055410;28;20048;-77
2023/09/29 02:00:49;;;;;;;14.02;5.82;;;16.50;99.90;;;;;;5064507;28;20488;-77
2023/09/29 02:03:15;;;;;;;16.35;5.50;;;16.50;99.90;;;;;;5063396;28;20055;-77
2023/09/29 02:05:42;;;;;;;17.63;5.68;;;16.50;99.90;;;;;;5055805;28;20082;-77
2023/09/29 02:08:09;;;;;;;12.70;5.15;;;16.50;99.90;;;;;;5062393;28;20055;-77
2023/09/29 02:10:36;;;;;;;15.07;4.93;;;16.50;99.90;;;;;;5074399;28;20040;-78
2023/09/29 02:13:07;;;;;;;14.07;4.78;;;16.60;99.90;;;;;;5065709;28;20410;-77
2023/09/29 02:15:34;;;;;;;16.02;5.40;;;16.50;99.90;;;;;;5061284;28;20538;-77
2023/09/29 02:18:11;;;;;;;16.65;5.38;;;16.50;99.90;;;;;;5065487;28;20162;-77
2023/09/29 02:20:41;;;;;;;15.70;5.43;;;16.50;99.90;;;;;;5060930;28;20072;-77
2023/09/29 02:23:07;;;;;;;21.70;5.82;;;16.60;99.90;;;;;;5065031;28;20048;-77
2023/09/29 02:25:33;;;;;;;15.07;5.55;;;16.50;99.90;;;;;;5064211;28;20039;-78
2023/09/29 02:27:59;;;;;;;17.92;6.03;;;16.50;99.90;;;;;;5069879;28;20522;-77
2023/09/29 02:30:26;;;;;;;21.75;5.35;;;16.50;99.90;;;;;;5051799;28;20130;-77
2023/09/29 02:32:55;;;;;;;15.43;5.30;;;16.50;99.90;;;;;;5063873;28;20046;-77
2023/09/29 02:35:21;;;;;;;20.77;6.60;;;16.50;99.90;;;;;;5061021;28;20051;-77
2023/09/29 02:37:48;;;;;;;16.02;6.10;;;16.60;99.90;;;;;;5067163;28;20036;-77
2023/09/29 02:40:15;;;;;;;16.00;5.63;;;16.50;99.90;;;;;;5071183;28;20036;-77
2023/09/29 02:42:43;;;;;;;15.35;5.60;;;16.50;99.90;;;;;;5067813;28;20116;-77
2023/09/29 02:45:09;;;;;;;13.68;5.22;;;16.40;99.90;;;;;;5064313;28;20033;-77
2023/09/29 02:47:41;;;;;;;17.60;5.60;;;16.50;99.90;;;;;;5057880;28;20033;-77
2023/09/29 02:50:09;;;;;;;17.38;5.30;;;16.60;99.90;;;;;;5067999;28;20461;-78
2023/09/29 02:52:36;;;;;;;17.38;5.45;;;16.50;99.90;;;;;;5069854;28;20043;-77
2023/09/29 02:55:04;;;;;;;14.27;5.18;;;16.50;99.90;;;;;;5073413;28;20429;-77
2023/09/29 02:57:30;;;;;;;17.58;5.95;;;16.60;99.90;;;;;;5067751;28;20084;-78
2023/09/29 02:59:57;;;;;;;14.98;5.00;;;16.60;99.90;;;;;;5067689;28;20067;-78
2023/09/29 03:02:23;;;;;;;16.63;5.57;;;16.60;99.90;;;;;;5059257;28;20045;-77
2023/09/29 03:04:51;;;;;;;16.08;5.40;;;16.60;99.90;;;;;;5073502;28;20078;-77
2023/09/29 03:07:17;;;;;;;18.13;5.22;;;16.60;99.90;;;;;;5069995;28;20036;-78
2023/09/29 03:09:42;;;;;;;22.13;5.75;;;16.60;99.90;;;;;;5058988;28;20107;-77
2023/09/29 03:12:08;;;;;;;14.27;5.45;;;16.60;99.90;;;;;;5053387;28;20117;-77
2023/09/29 03:14:34;;;;;;;19.38;5.45;;;16.60;99.90;;;;;;5060260;28;20135;-77
2023/09/29 03:17:00;;;;;;;13.38;4.43;;;16.60;99.90;;;;;;5061169;28;20128;-77
2023/09/29 03:19:31;;;;;;;16.65;5.13;;;16.60;99.90;;;;;;5067337;28;20522;-78
2023/09/29 03:21:58;;;;;;;14.32;5.28;;;16.60;99.90;;;;;;5055689;28;20167;-77
2023/09/29 03:24:28;;;;;;;15.05;5.18;;;16.60;99.90;;;;;;5057081;28;20068;-77
2023/09/29 03:26:53;;;;;;;13.02;5.05;;;16.60;99.90;;;;;;5062015;28;20501;-77
2023/09/29 03:29:19;;;;;;;16.58;5.57;;;16.60;99.90;;;;;;5064421;28;20037;-77
2023/09/29 03:31:46;;;;;;;19.02;4.97;;;16.60;99.90;;;;;;5067767;28;20029;-77
2023/09/29 03:34:13;;;;;;;14.60;5.25;;;16.60;99.90;;;;;;5065207;28;20047;-77
2023/09/29 03:36:39;;;;;;;19.95;5.88;;;16.60;99.90;;;;;;5053139;28;20033;-77
2023/09/29 03:39:06;;;;;;;15.48;4.93;;;16.60;99.90;;;;;;5068875;28;20036;-77
2023/09/29 03:41:33;;;;;;;19.42;5.13;;;16.60;99.90;;;;;;5061509;28;20130;-77
2023/09/29 03:43:59;;;;;;;16.75;5.38;;;16.50;99.90;;;;;;5061210;28;20052;-77
2023/09/29 03:46:24;;;;;;;15.60;5.25;;;16.60;99.90;;;;;;5067809;28;20048;-78
2023/09/29 03:48:50;;;;;;;15.75;4.97;;;16.60;99.90;;;;;;5063877;28;20140;-77
2023/09/29 03:51:23;;;;;;;14.65;5.50;;;16.60;99.90;;;;;;5073009;28;20036;-77
2023/09/29 03:53:50;;;;;;;15.93;5.25;;;16.60;99.90;;;;;;5058023;28;20041;-77
2023/09/29 03:56:16;;;;;;;18.80;5.97;;;16.60;99.90;;;;;;5072725;28;20504;-77
2023/09/29 03:58:43;;;;;;;25.20;6.32;;;16.60;99.90;;;;;;5060711;28;20033;-77
2023/09/29 04:01:08;;;;;;;16.10;5.57;;;16.60;99.90;;;;;;5069866;28;20375;-77
2023/09/29 04:03:34;;;;;;;14.85;5.10;;;16.60;99.90;;;;;;5058184;28;20033;-77
2023/09/29 04:06:00;;;;;;;15.63;5.78;;;16.70;99.90;;;;;;5064373;28;20055;-77
2023/09/29 04:08:26;;;;;;;16.10;6.75;;;16.70;99.90;;;;;;5065415;28;20546;-77
2023/09/29 04:10:53;;;;;;;17.40;6.45;;;16.70;99.90;;;;;;5059389;28;20041;-78
2023/09/29 04:13:19;;;;;;;20.35;6.60;;;16.70;99.90;;;;;;5059899;28;20040;-77
2023/09/29 04:15:44;;;;;;;20.77;7.40;;;16.70;99.90;;;;;;5062175;28;20052;-77
2023/09/29 04:18:10;;;;;;;15.48;6.45;;;16.70;99.90;;;;;;5060447;28;20040;-77
2023/09/29 04:20:35;;;;;;;16.98;7.30;;;16.70;99.90;;;;;;5055497;28;20041;-77
2023/09/29 04:23:01;;;;;;;16.85;7.38;;;16.70;99.90;;;;;;5066162;28;20083;-77
2023/09/29 04:25:26;;;;;;;19.98;7.90;;;16.70;99.90;;;;;;5058387;28;20485;-77
2023/09/29 04:27:52;;;;;;;15.27;7.35;;;16.70;99.90;;;;;;5060257;28;20028;-78
2023/09/29 04:30:18;;;;;;;15.48;7.20;;;16.70;99.90;;;;;;5064787;28;20112;-77
2023/09/29 04:32:46;;;;;;;17.35;7.50;;;16.80;99.90;;;;;;5060976;28;20103;-77
2023/09/29 04:35:12;;;;;;;16.45;7.82;;;16.70;99.90;;;;;;5057715;28;20111;-77
2023/09/29 04:37:37;;;;;;;15.73;7.43;;;16.80;99.90;;;;;;5070768;28;20040;-77
2023/09/29 04:40:04;;;;;;;15.07;7.25;;;16.70;99.90;;;;;;5065172;28;20082;-77
2023/09/29 04:42:30;;;;;;;18.50;7.45;;;16.80;99.90;;;;;;5071512;28;20035;-77
2023/09/29 04:44:55;;;;;;;19.95;8.40;;;16.80;99.90;;;;;;5064888;28;20039;-77
2023/09/29 04:47:21;;;;;;;18.80;7.35;;;16.80;99.90;;;;;;5064116;28;20115;-78
2023/09/29 04:49:46;;;;;;;17.42;8.00;;;16.80;99.90;;;;;;5062034;28;20090;-77
2023/09/29 04:52:12;;;;;;;16.63;8.10;;;16.80;99.90;;;;;;5058041;28;20036;-77
2023/09/29 04:54:38;;;;;;;17.13;8.00;;;16.80;99.90;;;;;;5061320;28;20036;-77
2023/09/29 04:57:03;;;;;;;17.92;7.15;;;16.80;99.90;;;;;;5058475;28;20117;-77
2023/09/29 04:59:29;;;;;;;16.33;8.18;;;16.80;99.90;;;;;;5049295;28;20052;-78
2023/09/29 05:01:55;;;;;;;13.82;7.32;;;16.80;99.90;;;;;;5065610;28;20048;-78
2023/09/29 05:04:20;;;;;;;12.90;6.65;;;16.80;99.90;;;;;;5066402;28;20033;-77
2023/09/29 05:06:46;;;;;;;20.95;7.80;;;16.80;99.90;;;;;;5068049;28;20111;-77
2023/09/29 05:09:11;;;;;;;17.92;7.13;;;16.80;99.90;;;;;;5054256;28;20042;-77
2023/09/29 05:11:37;;;;;;;14.02;6.97;;;16.80;99.90;;;;;;5067308;28;20460;-77
2023/09/29 05:14:03;;;;;;;15.32;6.72;;;16.80;99.90;;;;;;5056756;28;20049;-77
2023/09/29 05:16:31;;;;;;;15.07;6.45;;;16.90;99.90;;;;;;5067694;28;20035;-77
2023/09/29 05:18:58;;;;;;;14.05;6.35;;;16.90;99.90;;;;;;5057725;28;20041;-77
2023/09/29 05:21:26;;;;;;;13.95;6.45;;;16.80;99.90;;;;;;5056864;28;20120;-77
2023/09/29 05:23:52;;;;;;;14.75;6.10;;;16.80;99.90;;;;;;5067437;28;20036;-77
2023/09/29 05:26:18;;;;;;;12.35;6.25;;;16.80;99.90;;;;;;5071996;28;20517;-77
2023/09/29 05:28:43;;;;;;;15.32;7.03;;;16.80;99.90;;;;;;5067975;28;20040;-77
2023/09/29 05:31:09;;;;;;;16.85;6.85;;;16.90;99.90;;;;;;5067996;28;20051;-77
2023/09/29 05:33:35;;;;;;;11.75;6.40;;;16.80;99.90;;;;;;5071195;28;20054;-77
2023/09/29 05:36:01;;;;;;;10.02;6.20;;;16.90;99.90;;;;;;5070695;28;20044;-77
2023/09/29 05:38:26;;;;;;;12.65;6.10;;;16.80;99.90;;;;;;5062837;28;20029;-77
2023/09/29 05:40:52;;;;;;;15.90;6.15;;;16.90;99.90;;;;;;5068371;28;20098;-77
2023/09/29 05:43:18;;;;;;;13.85;5.97;;;16.90;99.90;;;;;;5068821;28;20510;-77
2023/09/29 05:45:50;;;;;;;11.93;6.18;;;16.90;99.90;;;;;;5064093;28;20064;-77
2023/09/29 05:48:16;;;;;;;15.07;6.20;;;16.90;99.90;;;;;;5060607;28;20049;-77
2023/09/29 05:50:41;;;;;;;13.93;6.07;;;16.90;99.90;;;;;;5074424;28;20632;-77
2023/09/29 05:53:07;;;;;;;9.93;5.60;;;16.90;99.90;;;;;;5071062;28;20040;-77
2023/09/29 05:55:33;;;;;;;13.52;6.10;;;16.90;99.90;;;;;;5076395;28;20068;-77
2023/09/29 05:57:59;;;;;;;12.90;5.88;;;16.90;99.90;;;;;;5072111;28;20040;-77
2023/09/29 06:00:25;;;;;;;15.15;5.70;;;16.90;99.90;;;;;;5074129;28;20043;-77
2023/09/29 06:02:51;;;;;;;23.67;6.57;;;16.90;99.90;;;;;;5065077;28;20047;-77
2023/09/29 06:05:17;;;;;;;13.13;5.97;;;16.90;99.90;;;;;;5068268;28;20037;-77
2023/09/29 06:07:43;;;;;;;10.80;5.05;;;16.90;99.90;;;;;;5074331;28;20029;-77
2023/09/29 06:10:10;;;;;;;12.50;5.03;;;16.90;99.90;;;;;;5070742;28;20040;-77
2023/09/29 06:12:37;;;;;;;11.80;5.10;;;16.90;99.90;;;;;;5061228;28;20051;-78
2023/09/29 06:15:03;;;;;;;10.95;5.00;;;17.00;99.90;;;;;;5071744;28;20133;-77
2023/09/29 06:17:30;;;;;;;10.93;4.60;;;17.00;99.90;;;;;;5071906;28;20133;-78
2023/09/29 06:19:55;;;;;;;7.93;4.85;;;17.00;99.90;;;;;;5071953;28;20390;-77
2023/09/29 06:22:21;;;;;;;10.27;4.70;;;17.10;99.90;;;;;;5069578;28;20044;-78
2023/09/29 06:24:47;;;;;;;12.80;4.45;;;17.10;99.90;;;;;;5067857;28;20037;-77
2023/09/29 06:27:13;;;;;;;13.23;4.70;;;17.00;99.90;;;;;;5052138;28;20118;-77
2023/09/29 06:29:39;;;;;;;10.23;4.38;;;17.10;99.90;;;;;;5053192;28;20503;-77
2023/09/29 06:32:09;;;;;;;6.65;3.95;;;17.10;99.90;;;;;;5067559;28;20098;-78
2023/09/29 06:34:35;;;;;;;9.32;3.90;;;17.10;99.90;;;;;;5059892;28;20049;-77
2023/09/29 06:37:01;;;;;;;8.88;4.63;;;17.10;99.90;;;;;;5067790;28;20118;-78
2023/09/29 06:39:27;;;;;;;9.48;4.43;;;17.10;99.90;;;;;;5058180;28;20032;-77
2023/09/29 06:41:53;;;;;;;12.40;4.65;;;17.10;99.90;;;;;;5069389;28;20044;-77
2023/09/29 06:44:18;;;;;;;9.55;4.60;;;17.00;99.90;;;;;;5044852;28;20044;-78
2023/09/29 06:46:44;;;;;;;11.13;4.65;;;17.10;99.90;;;;;;5060720;28;20467;-77
2023/09/29 06:49:10;;;;;;;9.73;4.90;;;17.20;99.90;;;;;;5065782;28;20068;-77
2023/09/29 06:51:36;;;;;;;12.48;5.10;;;17.20;99.90;;;;;;5064016;28;20505;-76
2023/09/29 06:54:02;;;;;;;13.15;4.63;;;17.20;99.90;;;;;;5072262;28;20475;-76
2023/09/29 06:56:28;;;;;;;11.43;4.38;;;17.20;99.90;;;;;;5070702;28;20510;-76
2023/09/29 06:58:57;;;;;;;10.15;4.28;;;17.20;99.90;;;;;;5053801;28;20041;-76
2023/09/29 07:01:23;;;;;;;9.35;4.50;;;17.30;99.90;;;;;;5058941;28;20045;-77
2023/09/29 07:03:49;;;;;;;11.95;4.50;;;17.20;99.90;;;;;;5064487;28;20479;-77
2023/09/29 07:06:15;;;;;;;9.70;4.55;;;17.40;99.90;;;;;;5068969;28;20112;-77
2023/09/29 07:08:41;;;;;;;10.73;4.93;;;17.40;99.90;;;;;;5069255;28;20089;-77
2023/09/29 07:11:06;;;;;;;8.88;4.30;;;17.40;99.90;;;;;;5066873;28;20402;-77
2023/09/29 07:13:32;;;;;;;8.57;4.35;;;17.40;99.90;;;;;;5068406;28;20032;-77
2023/09/29 07:15:58;;;;;;;10.02;4.65;;;17.40;99.90;;;;;;5068299;28;20052;-77
2023/09/29 07:18:23;;;;;;;10.50;4.20;;;17.40;99.90;;;;;;5071084;28;20028;-77
2023/09/29 07:20:53;;;;;;;12.23;4.97;;;17.50;99.90;;;;;;5067908;28;20033;-77
2023/09/29 07:23:22;;;;;;;8.18;4.22;;;17.50;99.90;;;;;;5069418;28;21135;-77
2023/09/29 07:25:51;;;;;;;9.27;4.05;;;17.50;99.90;;;;;;5063294;28;20036;-77
2023/09/29 07:28:22;;;;;;;7.63;3.80;;;17.60;99.90;;;;;;5063897;28;20129;-77
2023/09/29 07:30:50;;;;;;;6.65;3.35;;;17.60;99.90;;;;;;5073330;28;20526;-77
2023/09/29 07:33:16;;;;;;;10.82;3.95;;;17.70;99.90;;;;;;5065954;28;20522;-78
2023/09/29 07:35:44;;;;;;;6.85;4.13;;;17.70;99.90;;;;;;5067618;28;20036;-77
2023/09/29 07:38:10;;;;;;;7.47;4.10;;;17.70;99.90;;;;;;5070257;28;20039;-77
2023/09/29 07:40:35;;;;;;;7.70;3.92;;;17.90;99.90;;;;;;5061969;28;20048;-78
2023/09/29 07:43:02;;;;;;;8.88;3.85;;;17.80;99.90;;;;;;5062211;28;20033;-77
2023/09/29 07:45:28;;;;;;;7.50;3.80;;;17.90;99.90;;;;;;5059635;28;20029;-77
2023/09/29 07:47:54;;;;;;;9.15;4.22;;;18.00;99.90;;;;;;5063775;28;20032;-77
2023/09/29 07:50:20;;;;;;;9.40;3.90;;;18.00;99.90;;;;;;5069666;28;20032;-77
2023/09/29 07:52:45;;;;;;;8.10;3.85;;;18.00;99.90;;;;;;5065579;28;20033;-77
2023/09/29 07:55:11;;;;;;;8.52;3.90;;;18.20;99.90;;;;;;5057727;28;20161;-78
2023/09/29 07:57:37;;;;;;;6.47;4.13;;;18.20;99.90;;;;;;5064626;28;20077;-77
2023/09/29 08:00:05;;;;;;;7.88;3.95;;;18.30;99.90;;;;;;5063433;28;20509;-78
2023/09/29 08:02:34;;;;;;;7.50;4.05;;;18.30;99.90;;;;;;5062746;28;20040;-78
2023/09/29 08:05:00;;;;;;;9.05;4.25;;;18.30;99.90;;;;;;5062783;28;20045;-77
2023/09/29 08:07:27;;;;;;;8.43;4.28;;;18.40;99.90;;;;;;5067040;28;20094;-77
2023/09/29 08:09:53;;;;;;;8.30;4.00;;;18.50;99.90;;;;;;5064960;28;20036;-77
2023/09/29 08:12:18;;;;;;;;;;;18.50;99.90;;;;;;5062039;28;20052;-77
2023/09/29 08:14:44;;;;;;;7.25;3.75;;;18.60;99.90;;;;;;5069092;28;20003;-77
2023/09/29 08:17:10;;;;;;;6.50;3.97;;;18.60;99.90;;;;;;5066006;28;20123;-78
2023/09/29 08:19:36;;;;;;;9.80;4.10;;;18.70;99.90;;;;;;5069067;28;20483;-77
2023/09/29 08:22:02;;;;;;;9.32;4.45;;;18.70;99.90;;;;;;5064549;28;20160;-78
2023/09/29 08:24:31;;;;;;;7.25;4.25;;;18.80;99.90;;;;;;5055651;28;20706;-78
2023/09/29 08:26:57;;;;;;;8.60;4.35;;;18.80;99.90;;;;;;5073717;28;20032;-78
2023/09/29 08:29:23;;;;;;;7.97;3.97;;;18.80;99.90;;;;;;5068264;28;20119;-77
2023/09/29 08:31:49;;;;;;;8.13;4.35;;;18.90;99.90;;;;;;5071700;28;20105;-78
2023/09/29 08:34:14;;;;;;;7.28;4.47;;;19.00;99.90;;;;;;5070269;28;20499;-78
2023/09/29 08:36:41;;;;;;;10.73;4.20;;;18.90;99.90;;;;;;5059360;28;20047;-78
2023/09/29 08:39:06;;;;;;;6.80;4.20;;;19.00;99.90;;;;;;5070230;28;20037;-78
2023/09/29 08:41:34;;;;;;;6.90;3.90;;;19.10;99.90;;;;;;5061026;28;20090;-78
2023/09/29 08:44:03;;;;;;;5.68;4.00;;;19.20;99.90;;;;;;5070577;28;20041;-77
2023/09/29 08:46:32;;;;;;;6.82;4.03;;;19.30;99.90;;;;;;5068646;28;20041;-77
2023/09/29 08:48:58;;;;;;;9.60;4.10;;;19.30;99.90;;;;;;5073628;28;20119;-78
2023/09/29 08:51:25;;;;;;;8.50;4.18;;;19.40;99.90;;;;;;5071031;28;20480;-77
2023/09/29 08:53:52;;;;;;;7.18;3.78;;;19.40;99.90;;;;;;5070527;28;20040;-78
2023/09/29 08:56:18;;;;;;;7.90;4.20;;;19.50;99.90;;;;;;5071499;28;20044;-77
2023/09/29 08:58:45;;;;;;;5.97;3.85;;;19.50;99.90;;;;;;5069400;28;20040;-79
2023/09/29 09:01:10;;;;;;;21.00;5.18;;;19.50;99.90;;;;;;5064448;28;20049;-77
2023/09/29 09:03:36;;;;;;;7.13;4.07;;;19.60;99.90;;;;;;5066337;28;20055;-78
2023/09/29 09:06:18;;;;;;;7.10;3.55;;;19.70;99.90;;;;;;5065709;28;20414;-79
2023/09/29 09:08:43;;;;;;;7.05;3.58;;;19.70;99.90;;;;;;5070904;28;20108;-78
2023/09/29 09:11:09;;;;;;;5.65;3.75;;;19.80;99.90;;;;;;5073241;28;20071;-77
2023/09/29 09:13:34;;;;;;;7.00;3.85;;;19.90;99.90;;;;;;5073321;28;20045;-78
2023/09/29 09:16:00;;;;;;;6.80;3.38;;;19.90;99.90;;;;;;5072567;28;20048;-78
2023/09/29 09:18:29;;;;;;;9.13;4.15;;;20.00;99.90;;;;;;5073456;28;20043;-78
2023/09/29 09:20:55;;;;;;;6.00;3.30;;;20.10;99.90;;;;;;5066646;28;20052;-79
2023/09/29 09:23:21;;;;;;;8.05;3.45;;;20.10;99.90;;;;;;5070746;28;20041;-77
2023/09/29 09:25:47;;;;;;;7.45;3.78;;;20.10;99.90;;;;;;5065598;28;20035;-78
2023/09/29 09:28:22;;;;;;;6.03;3.85;;;20.10;99.90;;;;;;5065381;28;20047;-77
2023/09/29 09:30:51;;;;;;;5.68;3.78;;;20.10;99.90;;;;;;5070330;28;20040;-77
2023/09/29 09:33:21;;;;;;;6.18;3.47;;;20.10;99.90;;;;;;5076016;28;20559;-76
2023/09/29 09:35:48;;;;;;;7.70;3.58;;;20.20;99.90;;;;;;5064819;28;20364;-76
2023/09/29 09:38:14;;;;;;;9.48;3.72;;;20.20;99.90;;;;;;5063991;28;20039;-76
2023/09/29 09:40:40;;;;;;;7.13;3.50;;;20.20;99.90;;;;;;5066569;28;20049;-77
2023/09/29 09:43:07;;;;;;;6.53;3.40;;;20.20;99.90;;;;;;5064298;28;20565;-76
2023/09/29 09:45:42;;;;;;;5.95;3.30;;;20.20;99.90;;;;;;5054345;28;20054;-76
2023/09/29 09:48:09;;;;;;;8.30;3.42;;;20.20;99.90;;;;;;5072357;28;20036;-77
2023/09/29 09:50:38;;;;;;;8.68;3.63;;;20.10;99.90;;;;;;5061465;28;20044;-77
2023/09/29 09:53:07;;;;;;;6.10;3.67;;;20.10;99.90;;;;;;5069071;28;20041;-78
2023/09/29 09:55:43;;;;;;;9.07;3.65;;;20.00;99.90;;;;;;5061663;28;20403;-73
2023/09/29 09:58:15;;;;;;;7.43;3.33;;;20.00;99.90;;;;;;5063994;28;20041;-74
2023/09/29 10:00:42;;;;;;;7.18;3.95;;;20.00;99.90;;;;;;5070084;28;20029;-73
2023/09/29 10:03:14;;;;;;;8.38;3.85;;;20.00;99.90;;;;;;5068681;28;20044;-73
2023/09/29 10:05:42;;;;;;;8.15;3.75;;;20.00;99.90;;;;;;5061576;28;20028;-72
2023/09/29 10:08:10;;;;;;;6.70;3.80;;;20.00;99.90;;;;;;5061627;28;20082;-73
2023/09/29 10:10:40;;;;;;;10.35;4.38;;;20.00;99.90;;;;;;5066464;28;20067;-73
2023/09/29 10:13:12;;;;;;;11.98;3.72;;;20.00;99.90;;;;;;5072274;28;20395;-73
2023/09/29 10:15:53;;;;;;;7.50;3.72;;;20.00;99.90;;;;;;5064420;28;20040;-73
2023/09/29 10:18:20;;;;;;;8.93;3.92;;;20.00;99.90;;;;;;5063117;28;20036;-73
2023/09/29 10:20:55;;;;;;;8.27;4.10;;;20.00;99.90;;;;;;5057394;28;20530;-76
2023/09/29 10:23:24;;;;;;;8.07;3.67;;;20.00;99.90;;;;;;5072620;28;20047;-77
2023/09/29 10:26:02;;;;;;;8.13;3.78;;;20.00;99.90;;;;;;5060017;28;20037;-74
2023/09/29 10:28:35;;;;;;;7.55;3.75;;;20.00;99.90;;;;;;5063509;28;20461;-74
2023/09/29 10:31:13;;;;;;;6.53;3.80;;;20.10;99.90;;;;;;5064095;28;20048;-74
2023/09/29 10:33:53;;;;;;;6.60;3.95;;;20.10;99.90;;;;;;5059734;28;20566;-74
2023/09/29 10:36:24;;;;;;;8.55;3.53;;;20.20;99.90;;;;;;5070399;28;20501;-74
2023/09/29 10:38:51;;;;;;;7.10;3.85;;;20.20;99.90;;;;;;5065610;28;20083;-74
2023/09/29 10:41:21;;;;;;;9.82;3.97;;;20.20;99.90;;;;;;5074506;28;20045;-74
2023/09/29 10:43:48;;;;;;;8.60;4.25;;;20.20;99.90;;;;;;5057103;28;20115;-74
2023/09/29 10:46:16;;;;;;;7.28;3.53;;;20.20;99.90;;;;;;5067100;28;20131;-74
2023/09/29 10:48:54;;;;;;;8.55;3.78;;;20.30;99.90;;;;;;5069022;28;20124;-74
2023/09/29 10:51:27;;;;;;;9.23;3.92;;;20.30;99.90;;;;;;5068159;28;20086;-77
2023/09/29 10:53:54;;;;;;;7.60;3.78;;;20.40;99.90;;;;;;5065654;28;20064;-77
2023/09/29 10:56:24;;;;;;;8.55;4.00;;;20.30;99.90;;;;;;5062334;28;20557;-78
2023/09/29 10:58:54;;;;;;;8.13;3.92;;;20.50;99.90;;;;;;5062538;28;20029;-77
2023/09/29 11:01:30;;;;;;;7.90;4.00;;;20.40;99.90;;;;;;5069606;28;20141;-76
2023/09/29 11:03:56;;;;;;;9.85;4.10;;;20.40;99.90;;;;;;5061448;28;20037;-77
2023/09/29 11:06:22;;;;;;;9.98;4.50;;;20.30;99.90;;;;;;5063515;28;20036;-77
2023/09/29 11:09:07;;;;;;;9.60;4.13;;;20.30;99.90;;;;;;5071117;28;20068;-77
2023/09/29 11:11:35;;;;;;;7.10;3.92;;;20.40;99.90;;;;;;5070931;28;20040;-78
2023/09/29 11:14:04;;;;;;;8.25;4.53;;;20.40;99.90;;;;;;5073051;28;20052;-77
2023/09/29 11:16:30;;;;;;;8.80;4.28;;;20.40;99.90;;;;;;5070199;28;20388;-78
2023/09/29 11:19:12;;;;;;;8.52;4.55;;;20.50;99.90;;;;;;5068600;28;20499;-78
2023/09/29 11:21:40;;;;;;;7.45;4.13;;;20.60;99.90;;;;;;5055044;28;20049;-77
2023/09/29 11:24:11;;;;;;;9.00;4.40;;;20.60;99.90;;;;;;5058451;28;20049;-77
2023/09/29 11:26:40;;;;;;;6.47;3.95;;;20.60;99.90;;;;;;5060757;28;20133;-77
2023/09/29 11:29:08;;;;;;;11.60;5.05;;;20.60;99.90;;;;;;5065106;28;20040;-77
2023/09/29 11:31:34;;;;;;;10.18;5.32;;;20.60;99.90;;;;;;5059589;28;20501;-77
2023/09/29 11:34:00;;;;;;;9.25;4.70;;;20.70;99.90;;;;;;5071715;28;20090;-77
2023/09/29 11:36:29;;;;;;;7.60;4.78;;;20.80;99.90;;;;;;5064515;28;20441;-77
2023/09/29 11:38:55;;;;;;;9.77;4.35;;;20.90;99.90;;;;;;5063067;28;20032;-77
2023/09/29 11:41:22;;;;;;;8.35;4.20;;;20.90;99.90;;;;;;5067365;28;20071;-77
2023/09/29 11:43:48;;;;;;;9.93;4.05;;;21.00;99.90;;;;;;5064898;28;20036;-76
2023/09/29 11:46:14;;;;;;;7.60;3.75;;;21.10;99.90;;;;;;5064280;28;20081;-77
2023/09/29 11:48:43;;;;;;;9.77;3.67;;;21.10;99.90;;;;;;5071677;28;20039;-77
2023/09/29 11:51:10;;;;;;;6.80;3.72;;;21.10;99.90;;;;;;5065787;28;20115;-78
2023/09/29 11:53:38;;;;;;;6.82;3.78;;;21.20;99.90;;;;;;5061268;28;20059;-74
2023/09/29 11:56:07;;;;;;;7.10;3.20;;;21.20;99.90;;;;;;5074395;28;20045;-74
2023/09/29 11:58:33;;;;;;;7.10;3.90;;;21.10;99.90;;;;;;5064693;28;20056;-75
2023/09/29 12:01:00;;;;;;;10.90;3.63;;;21.20;99.90;;;;;;5065830;28;20048;-78
2023/09/29 12:03:27;;;;;;;7.05;3.63;;;21.10;99.90;;;;;;5067195;28;20515;-78
2023/09/29 12:05:53;;;;;;;6.75;3.65;;;21.20;99.90;;;;;;5055933;28;20033;-78
2023/09/29 12:08:19;;;;;;;7.45;3.65;;;21.20;99.90;;;;;;5067936;28;20071;-78
2023/09/29 12:10:45;;;;;;;7.30;3.63;;;21.20;99.90;;;;;;5060633;28;20064;-75
2023/09/29 12:13:15;;;;;;;7.00;3.60;;;21.20;99.90;;;;;;5070501;28;20052;-77
2023/09/29 12:15:41;;;;;;;12.55;4.40;;;21.20;99.90;;;;;;5062629;28;20414;-76
2023/09/29 12:18:07;;;;;;;8.57;3.67;;;21.20;99.90;;;;;;5062090;28;20061;-78
2023/09/29 12:20:32;;;;;;;8.25;4.10;;;21.10;99.90;;;;;;5070197;28;20082;-77
2023/09/29 12:23:00;;;;;;;11.20;4.68;;;20.90;99.90;;;;;;5064487;28;20045;-79
2023/09/29 12:25:26;;;;;;;8.02;4.43;;;20.70;99.90;;;;;;5069837;28;20040;-79
2023/09/29 12:27:52;;;;;;;7.22;4.28;;;20.60;99.90;;;;;;5068963;28;20025;-77
2023/09/29 12:30:18;;;;;;;7.97;4.57;;;20.40;99.90;;;;;;5072175;28;20060;-76
2023/09/29 12:32:45;;;;;;;9.85;4.70;;;20.30;99.90;;;;;;5068577;28;20052;-77
2023/09/29 12:35:14;;;;;;;9.20;5.00;;;20.20;99.90;;;;;;5064162;28;20184;-75
2023/09/29 12:37:42;;;;;;;8.40;4.53;;;20.10;99.90;;;;;;5067866;28;20079;-78
2023/09/29 12:40:12;;;;;;;7.53;4.60;;;20.00;99.90;;;;;;5064103;28;20091;-77